Estación de C. Llollinco
Ultimos registro cada 15 minutos 63
| N° | Estación | Fecha / Hora | Temperatura | Humedad | Lluvia | Velocidad | Dirección | Radiación | Presion |
| 63 | C. Llollinco | 05-05-2026 15:30 | 14,7 | 95,5 | 0 | 0 | 179 | 41 | 0 |
| 62 | C. Llollinco | 05-05-2026 15:15 | 14,7 | 95,2 | 0 | 0,2 | 38 | 29 | 0 |
| 61 | C. Llollinco | 05-05-2026 15:00 | 14,6 | 95,7 | 0 | 0 | 0 | 39 | 0 |
| 60 | C. Llollinco | 05-05-2026 14:45 | 14,6 | 95,2 | 0 | 0 | 0 | 75 | 0 |
| 59 | C. Llollinco | 05-05-2026 14:30 | 14,6 | 95,1 | 0,1 | 0 | 0 | 62 | 0 |
| 58 | C. Llollinco | 05-05-2026 14:15 | 14,7 | 94,6 | 0,1 | 0 | 0 | 47 | 0 |
| 57 | C. Llollinco | 05-05-2026 14:00 | 15,1 | 92,8 | 0 | 0 | 0 | 48 | 0 |
| 56 | C. Llollinco | 05-05-2026 13:45 | 15 | 91,1 | 0,1 | 0 | 36 | 101 | 0 |
| 55 | C. Llollinco | 05-05-2026 13:30 | 14,8 | 91,7 | 0 | 0 | 65 | 84 | 0 |
| 54 | C. Llollinco | 05-05-2026 13:15 | 14,5 | 93,8 | 0 | 0,2 | 28 | 76 | 0 |
| 53 | C. Llollinco | 05-05-2026 13:00 | 14,4 | 97 | 0 | 0,4 | 39 | 103 | 0 |
| 52 | C. Llollinco | 05-05-2026 12:45 | 14,1 | 98,1 | 0 | 0 | 0 | 133 | 0 |
| 51 | C. Llollinco | 05-05-2026 12:30 | 13,8 | 98,1 | 0 | 0 | 30 | 101 | 0 |
| 50 | C. Llollinco | 05-05-2026 12:15 | 13,4 | 98,3 | 0 | 0,1 | 88 | 53 | 0 |
| 49 | C. Llollinco | 05-05-2026 12:00 | 13,2 | 98,4 | 0 | 0,8 | 174 | 62 | 0 |
| 48 | C. Llollinco | 05-05-2026 11:45 | 13,1 | 98,4 | 0 | 0,1 | 175 | 48 | 0 |
| 47 | C. Llollinco | 05-05-2026 11:30 | 13,1 | 98,4 | 0 | 0 | 157 | 38 | 0 |
| 46 | C. Llollinco | 05-05-2026 11:15 | 13,1 | 98,5 | 0 | 0 | 150 | 47 | 0 |
| 45 | C. Llollinco | 05-05-2026 11:00 | 13,1 | 98,4 | 0 | 0 | 0 | 64 | 0 |
| 44 | C. Llollinco | 05-05-2026 10:45 | 12,9 | 98,5 | 0 | 0 | 0 | 70 | 0 |
| 43 | C. Llollinco | 05-05-2026 10:30 | 12,5 | 98,6 | 0 | 0 | 192 | 65 | 0 |
| 42 | C. Llollinco | 05-05-2026 10:15 | 12,4 | 98,6 | 0 | 0,4 | 188 | 32 | 0 |
| 41 | C. Llollinco | 05-05-2026 10:00 | 12,4 | 98,5 | 0 | 0 | 157 | 29 | 0 |
| 40 | C. Llollinco | 05-05-2026 09:45 | 12,3 | 98,5 | 0 | 0 | 0 | 42 | 0 |
| 39 | C. Llollinco | 05-05-2026 09:30 | 12,2 | 98,6 | 0 | 0 | 172 | 36 | 0 |
| 38 | C. Llollinco | 05-05-2026 09:15 | 12 | 98,5 | 0 | 0 | 0 | 44 | 0 |
| 37 | C. Llollinco | 05-05-2026 09:00 | 11,8 | 98,6 | 0 | 0 | 0 | 23 | 0 |
| 36 | C. Llollinco | 05-05-2026 08:45 | 11,8 | 98,4 | 0 | 0 | 0 | 14 | 0 |
| 35 | C. Llollinco | 05-05-2026 08:30 | 11,7 | 98,5 | 0,1 | 0 | 0 | 16 | 0 |
| 34 | C. Llollinco | 05-05-2026 08:15 | 11,7 | 98,5 | 0 | 0 | 86 | 9 | 0 |
| 33 | C. Llollinco | 05-05-2026 08:00 | 11,6 | 98,4 | 0 | 0 | 0 | 1 | 0 |
| 32 | C. Llollinco | 05-05-2026 07:45 | 11,6 | 98,4 | 0,1 | 0,2 | 43 | 0 | 0 |
| 31 | C. Llollinco | 05-05-2026 07:30 | 11,7 | 98,2 | 0 | 0 | 42 | 0 | 0 |
| 30 | C. Llollinco | 05-05-2026 07:15 | 11,7 | 98,3 | 0 | 0 | 164 | 0 | 0 |
| 29 | C. Llollinco | 05-05-2026 07:00 | 11,7 | 98,3 | 0,1 | 0,1 | 345 | 0 | 0 |
| 28 | C. Llollinco | 05-05-2026 06:45 | 11,7 | 98,4 | 0 | 0 | 3 | 0 | 0 |
| 27 | C. Llollinco | 05-05-2026 06:30 | 11,7 | 98,4 | 0,1 | 0 | 0 | 0 | 0 |
| 26 | C. Llollinco | 05-05-2026 06:15 | 11,6 | 98,3 | 0,3 | 0,1 | 192 | 0 | 0 |
| 25 | C. Llollinco | 05-05-2026 06:00 | 11,6 | 98,3 | 0,1 | 0 | 214 | 0 | 0 |
| 24 | C. Llollinco | 05-05-2026 05:45 | 11,6 | 98,3 | 0,1 | 0 | 0 | 0 | 0 |
| 23 | C. Llollinco | 05-05-2026 05:30 | 11,6 | 98,2 | 0 | 0 | 0 | 0 | 0 |
| 22 | C. Llollinco | 05-05-2026 05:15 | 11,7 | 98,1 | 0,2 | 0 | 0 | 0 | 0 |
| 21 | C. Llollinco | 05-05-2026 05:00 | 11,7 | 98,1 | 0 | 0 | 0 | 0 | 0 |
| 20 | C. Llollinco | 05-05-2026 04:45 | 11,7 | 98,1 | 0 | 0 | 201 | 0 | 0 |
| 19 | C. Llollinco | 05-05-2026 04:30 | 11,7 | 98 | 0 | 0 | 0 | 0 | 0 |
| 18 | C. Llollinco | 05-05-2026 04:15 | 11,8 | 97,9 | 0 | 0 | 16 | 0 | 0 |
| 17 | C. Llollinco | 05-05-2026 04:00 | 11,8 | 97,9 | 0,1 | 0 | 0 | 0 | 0 |
| 16 | C. Llollinco | 05-05-2026 03:45 | 11,8 | 98 | 0 | 0 | 0 | 0 | 0 |
| 15 | C. Llollinco | 05-05-2026 03:30 | 11,8 | 97,9 | 0 | 0,1 | 26 | 0 | 0 |
| 14 | C. Llollinco | 05-05-2026 03:15 | 11,9 | 97,8 | 0 | 0 | 0 | 0 | 0 |
| 13 | C. Llollinco | 05-05-2026 03:00 | 11,9 | 97,7 | 0 | 0 | 0 | 0 | 0 |
| 12 | C. Llollinco | 05-05-2026 02:45 | 12 | 97,9 | 0 | 0 | 0 | 0 | 0 |
| 11 | C. Llollinco | 05-05-2026 02:30 | 12 | 97,7 | 0 | 0 | 169 | 0 | 0 |
| 10 | C. Llollinco | 05-05-2026 02:15 | 12,1 | 97,6 | 0 | 0 | 0 | 0 | 0 |
| 9 | C. Llollinco | 05-05-2026 02:00 | 12,2 | 97,6 | 0 | 0 | 0 | 0 | 0 |
| 8 | C. Llollinco | 05-05-2026 01:45 | 12,2 | 97,5 | 0 | 0 | 0 | 0 | 0 |
| 7 | C. Llollinco | 05-05-2026 01:30 | 12,2 | 97,4 | 0 | 0 | 0 | 0 | 0 |
| 6 | C. Llollinco | 05-05-2026 01:15 | 12,3 | 97,3 | 0 | 0 | 0 | 0 | 0 |
| 5 | C. Llollinco | 05-05-2026 01:00 | 12,4 | 97,2 | 0,1 | 0 | 42 | 0 | 0 |
| 4 | C. Llollinco | 05-05-2026 00:45 | 12,6 | 97,3 | 0 | 0,1 | 86 | 0 | 0 |
| 3 | C. Llollinco | 05-05-2026 00:30 | 12,6 | 97,1 | 0 | 0,8 | 46 | 0 | 0 |
| 2 | C. Llollinco | 05-05-2026 00:15 | 12,6 | 97,1 | 0 | 1,2 | 37 | 0 | 0 |
| 1 | C. Llollinco | 05-05-2026 00:00 | 12,6 | 97,1 | 0,1 | 1,6 | 39 | 0 | 0 |